createdAt,value
2018-05-26T00:00:59.437Z,21.73
2018-05-26T00:03:01.886Z,18.33
2018-05-26T00:05:04.389Z,25.20
2018-05-26T00:07:06.830Z,25.60
2018-05-26T00:09:09.281Z,24.73
2018-05-26T00:11:12.500Z,22.30
2018-05-26T00:13:14.976Z,21.63
2018-05-26T00:15:17.448Z,27.57
2018-05-26T00:17:19.921Z,25.37
2018-05-26T00:19:22.388Z,24.07
2018-05-26T00:21:24.830Z,22.03
2018-05-26T00:23:27.340Z,28.63
2018-05-26T00:25:29.912Z,22.37
2018-05-26T00:27:32.338Z,25.67
2018-05-26T00:29:34.868Z,22.00
2018-05-26T00:31:37.352Z,21.83
2018-05-26T00:33:39.793Z,25.03
2018-05-26T00:35:42.459Z,23.63
2018-05-26T00:37:44.920Z,25.37
2018-05-26T00:39:47.340Z,24.30
2018-05-26T00:41:50.602Z,24.40
2018-05-26T00:43:54.038Z,29.60
2018-05-26T00:45:57.298Z,31.23
2018-05-26T00:47:59.731Z,31.83
2018-05-26T00:50:02.213Z,35.30
2018-05-26T00:52:04.642Z,24.93
2018-05-26T00:54:07.169Z,27.03
2018-05-26T00:56:09.601Z,26.00
2018-05-26T00:58:12.041Z,26.27
2018-05-26T01:00:15.276Z,24.73
2018-05-26T01:02:17.768Z,26.87
2018-05-26T01:04:20.333Z,33.43
2018-05-26T01:06:22.778Z,29.67
2018-05-26T01:08:25.244Z,25.57
2018-05-26T01:10:27.681Z,36.67
2018-05-26T01:12:30.897Z,29.73
2018-05-26T01:14:33.364Z,25.73
2018-05-26T01:16:35.849Z,29.90
2018-05-26T01:18:38.301Z,26.87
2018-05-26T01:20:40.762Z,29.23
2018-05-26T01:22:43.951Z,27.17
2018-05-26T01:24:46.444Z,34.50
2018-05-26T01:26:48.873Z,35.50
2018-05-26T01:28:52.112Z,31.30
2018-05-26T01:30:54.568Z,39.47
2018-05-26T01:32:57.040Z,33.27
2018-05-26T01:34:59.508Z,29.93
2018-05-26T01:37:01.964Z,31.67
2018-05-26T01:39:05.068Z,36.30
2018-05-26T01:41:07.532Z,34.60
2018-05-26T01:43:10.964Z,32.90
2018-05-26T01:45:13.501Z,35.17
2018-05-26T01:47:15.936Z,39.63
2018-05-26T01:49:19.156Z,40.83
2018-05-26T01:51:21.604Z,40.07
2018-05-26T01:53:24.024Z,35.27
2018-05-26T01:55:26.601Z,36.57
2018-05-26T01:57:29.038Z,36.07
2018-05-26T01:59:31.504Z,32.90
2018-05-26T02:01:33.976Z,33.90
2018-05-26T02:03:36.413Z,29.63
2018-05-26T02:05:39.636Z,32.40
2018-05-26T02:07:42.065Z,28.90
2018-05-26T02:09:45.274Z,34.70
2018-05-26T02:11:47.709Z,31.90
2018-05-26T02:13:50.164Z,31.97
2018-05-26T02:15:52.608Z,31.43
2018-05-26T02:17:55.082Z,31.70
2018-05-26T02:19:57.544Z,34.73
2018-05-26T02:22:00.020Z,35.33
2018-05-26T02:24:02.449Z,29.70
2018-05-26T02:26:05.650Z,29.03
2018-05-26T02:28:08.149Z,24.77
2018-05-26T02:30:10.610Z,29.07
2018-05-26T02:32:13.038Z,31.33
2018-05-26T02:34:16.234Z,29.70
2018-05-26T02:36:19.460Z,24.73
2018-05-26T02:38:21.893Z,32.40
2018-05-26T02:40:24.332Z,25.07
2018-05-26T02:42:26.864Z,27.00
2018-05-26T02:44:29.337Z,26.37
2018-05-26T02:46:31.805Z,25.63
2018-05-26T02:48:34.239Z,31.10
2018-05-26T02:50:37.456Z,29.87
2018-05-26T02:52:39.889Z,31.90
2018-05-26T02:54:43.120Z,28.63
2018-05-26T02:56:45.610Z,34.57
2018-05-26T02:58:48.042Z,25.33
2018-05-26T03:00:50.500Z,27.70
2018-05-26T03:02:52.939Z,24.93
2018-05-26T03:05:01.082Z,29.10
2018-05-26T03:07:10.123Z,26.80
2018-05-26T03:09:18.300Z,23.30
2018-05-26T03:11:27.201Z,22.67
2018-05-26T03:13:35.438Z,25.20
2018-05-26T03:15:37.872Z,28.63
2018-05-26T03:17:43.844Z,25.67
2018-05-26T03:19:46.289Z,25.83
2018-05-26T03:21:48.819Z,22.73
2018-05-26T03:23:51.248Z,25.43
2018-05-26T03:25:54.472Z,22.60
2018-05-26T03:27:56.922Z,21.10
2018-05-26T03:29:59.648Z,19.50
2018-05-26T03:32:02.111Z,23.37
2018-05-26T03:34:04.545Z,20.00
2018-05-26T03:36:07.053Z,24.33
2018-05-26T03:38:09.489Z,22.67
2018-05-26T03:40:11.918Z,18.70
2018-05-26T03:42:15.163Z,22.87
2018-05-26T03:44:17.630Z,21.47
2018-05-26T03:46:20.096Z,35.37
2018-05-26T03:48:22.585Z,17.57
2018-05-26T03:50:25.024Z,20.10
2018-05-26T03:52:27.536Z,18.00
2018-05-26T03:54:41.961Z,18.77
2018-05-26T03:56:56.416Z,26.53
2018-05-26T03:59:10.861Z,27.07
2018-05-26T04:01:13.336Z,24.20
2018-05-26T04:03:15.812Z,22.37
2018-05-26T04:05:18.268Z,20.50
2018-05-26T04:07:20.753Z,18.37
2018-05-26T04:09:23.214Z,17.80
2018-05-26T04:11:25.704Z,29.43
2018-05-26T04:13:28.165Z,20.37
2018-05-26T04:15:31.412Z,20.07
2018-05-26T04:17:33.924Z,16.77
2018-05-26T04:19:36.381Z,24.03
2018-05-26T04:21:38.812Z,16.40
2018-05-26T04:23:42.007Z,16.20
2018-05-26T04:25:44.508Z,16.93
2018-05-26T04:27:46.965Z,22.00
2018-05-26T04:29:49.392Z,14.40
2018-05-26T04:31:51.828Z,20.40
2018-05-26T04:33:54.267Z,15.90
2018-05-26T04:35:56.798Z,20.10
2018-05-26T04:37:59.232Z,15.03
2018-05-26T04:40:02.087Z,18.80
2018-05-26T04:42:04.521Z,18.27
2018-05-26T04:44:06.985Z,17.90
2018-05-26T04:46:09.449Z,17.90
2018-05-26T04:48:11.880Z,15.33
2018-05-26T04:50:14.318Z,22.03
2018-05-26T04:52:17.524Z,20.30
2018-05-26T04:54:20.016Z,16.10
2018-05-26T04:56:22.463Z,16.63
2018-05-26T04:58:24.953Z,15.47
2018-05-26T05:00:27.388Z,15.10
2018-05-26T05:02:30.616Z,11.63
2018-05-26T05:04:33.081Z,14.40
2018-05-26T05:06:35.517Z,15.30
2018-05-26T05:08:38.714Z,11.13
2018-05-26T05:10:41.147Z,10.27
2018-05-26T05:12:43.593Z,11.93
2018-05-26T05:14:46.043Z,20.63
2018-05-26T05:16:48.474Z,14.87
2018-05-26T05:18:51.700Z,15.33
2018-05-26T05:20:54.143Z,13.80
2018-05-26T05:22:57.355Z,10.23
2018-05-26T05:24:59.784Z,11.23
2018-05-26T05:27:02.977Z,9.33
2018-05-26T05:29:06.203Z,14.50
2018-05-26T05:31:08.677Z,10.07
2018-05-26T05:33:11.145Z,9.30
2018-05-26T05:35:13.576Z,13.93
2018-05-26T05:37:16.773Z,20.20
2018-05-26T05:39:19.256Z,9.13
2018-05-26T05:41:21.692Z,13.17
2018-05-26T05:43:24.216Z,13.33
2018-05-26T05:45:26.641Z,10.40
2018-05-26T05:47:29.850Z,12.30
2018-05-26T05:49:32.276Z,9.23
2018-05-26T05:51:34.693Z,20.37
2018-05-26T05:53:37.126Z,8.03
2018-05-26T05:55:39.567Z,10.47
2018-05-26T05:57:42.088Z,10.17
2018-05-26T05:59:45.304Z,8.63
2018-05-26T06:01:47.787Z,11.00
2018-05-26T06:03:50.212Z,8.30
2018-05-26T06:05:53.426Z,12.93
2018-05-26T06:07:55.887Z,8.97
2018-05-26T06:09:58.357Z,9.73
2018-05-26T06:12:00.784Z,10.80
2018-05-26T06:14:03.221Z,10.23
2018-05-26T06:16:05.705Z,13.83
2018-05-26T06:18:08.157Z,20.53
2018-05-26T06:20:10.625Z,9.37
2018-05-26T06:22:13.046Z,9.20
2018-05-26T06:24:16.282Z,11.83
2018-05-26T06:26:18.782Z,9.37
2018-05-26T06:28:21.188Z,9.97
2018-05-26T06:30:24.407Z,17.03
2018-05-26T06:32:26.844Z,11.23
2018-05-26T06:34:30.044Z,12.43
2018-05-26T06:36:32.468Z,11.10
2018-05-26T06:38:34.922Z,32.07
2018-05-26T06:40:37.456Z,13.57
2018-05-26T06:42:40.648Z,9.73
2018-05-26T06:44:44.238Z,10.27
2018-05-26T06:46:46.661Z,8.63
2018-05-26T06:48:49.910Z,11.50
2018-05-26T06:50:52.341Z,10.70
2018-05-26T06:52:55.568Z,9.77
2018-05-26T06:54:58.001Z,11.93
2018-05-26T06:57:01.246Z,21.53
2018-05-26T06:59:03.668Z,14.10
2018-05-26T07:01:06.176Z,13.47
2018-05-26T07:03:08.644Z,17.77
2018-05-26T07:05:12.298Z,16.77
2018-05-26T07:07:14.811Z,14.03
2018-05-26T07:09:17.259Z,16.80
2018-05-26T07:11:20.680Z,17.77
2018-05-26T07:13:23.146Z,16.87
2018-05-26T07:15:25.593Z,15.67
2018-05-26T07:17:28.076Z,14.77
2018-05-26T07:19:30.581Z,15.80
2018-05-26T07:21:33.905Z,24.50
2018-05-26T07:23:37.129Z,25.37
2018-05-26T07:25:39.605Z,16.33
2018-05-26T07:27:42.051Z,12.43
2018-05-26T07:29:44.505Z,19.80
2018-05-26T07:31:47.703Z,14.23
2018-05-26T07:33:51.752Z,18.70
2018-05-26T07:35:54.188Z,17.47
2018-05-26T07:37:56.650Z,16.07
2018-05-26T07:39:59.162Z,21.63
2018-05-26T07:42:01.633Z,13.97
2018-05-26T07:44:04.081Z,16.90
2018-05-26T07:46:06.504Z,13.70
2018-05-26T07:48:09.753Z,16.20
2018-05-26T07:50:12.231Z,23.53
2018-05-26T07:52:14.684Z,16.43
2018-05-26T07:54:17.124Z,21.87
2018-05-26T07:56:19.638Z,14.03
2018-05-26T07:58:22.136Z,21.70
2018-05-26T08:00:24.577Z,14.90
2018-05-26T08:02:27.043Z,21.80
2018-05-26T08:04:29.504Z,15.63
2018-05-26T08:06:31.945Z,14.43
2018-05-26T08:08:34.445Z,13.03
2018-05-26T08:10:36.886Z,15.93
2018-05-26T08:12:39.396Z,18.83
2018-05-26T08:14:41.820Z,14.47
2018-05-26T08:16:45.053Z,16.17
2018-05-26T08:18:47.508Z,19.07
2018-05-26T08:20:49.981Z,18.20
2018-05-26T08:22:52.416Z,12.53
2018-05-26T08:24:55.608Z,11.13
2018-05-26T08:26:58.792Z,15.30
2018-05-26T08:29:02.056Z,10.90
2018-05-26T08:31:05.301Z,12.43
2018-05-26T08:33:07.735Z,10.40
2018-05-26T08:35:10.941Z,15.67
2018-05-26T08:37:13.471Z,13.23
2018-05-26T08:39:15.901Z,12.83
2018-05-26T08:41:18.369Z,13.17
2018-05-26T08:43:20.854Z,15.63
2018-05-26T08:45:23.317Z,10.50
2018-05-26T08:47:25.776Z,10.40
2018-05-26T08:49:28.217Z,14.30
2018-05-26T08:51:31.436Z,10.47
2018-05-26T08:53:33.916Z,11.50
2018-05-26T08:55:36.360Z,13.30
2018-05-26T08:57:38.856Z,8.73
2018-05-26T08:59:41.316Z,11.77
2018-05-26T09:01:43.832Z,9.87
2018-05-26T09:03:47.045Z,11.80
2018-05-26T09:05:50.245Z,11.47
2018-05-26T09:07:52.665Z,8.23
2018-05-26T09:09:55.204Z,10.80
2018-05-26T09:11:57.681Z,13.50
2018-05-26T09:14:00.145Z,14.10
2018-05-26T09:16:02.617Z,10.87
2018-05-26T09:18:05.080Z,15.40
2018-05-26T09:20:07.553Z,9.77
2018-05-26T09:22:10.028Z,10.67
2018-05-26T09:24:12.464Z,17.07
2018-05-26T09:26:15.677Z,9.63
2018-05-26T09:28:18.152Z,11.90
2018-05-26T09:30:20.666Z,10.43
2018-05-26T09:32:23.100Z,9.87
2018-05-26T09:34:25.562Z,11.80
2018-05-26T09:36:28.738Z,13.63
2018-05-26T09:38:31.224Z,14.60
2018-05-26T09:40:33.721Z,8.23
2018-05-26T09:42:36.157Z,9.13
2018-05-26T09:44:38.636Z,9.50
2018-05-26T09:46:41.064Z,6.07
2018-05-26T09:48:44.340Z,10.07
2018-05-26T09:50:46.782Z,6.83
2018-05-26T09:52:49.216Z,13.20
2018-05-26T09:54:53.423Z,6.93
2018-05-26T09:56:56.600Z,6.00
2018-05-26T09:58:59.820Z,11.67
2018-05-26T10:01:02.285Z,8.40
2018-05-26T10:03:04.712Z,8.37
2018-05-26T10:05:07.941Z,9.57
2018-05-26T10:07:10.364Z,7.80
2018-05-26T10:09:13.621Z,18.53
2018-05-26T10:11:16.040Z,9.03
2018-05-26T10:13:19.221Z,5.20
2018-05-26T10:15:22.421Z,5.40
2018-05-26T10:17:24.855Z,9.03
2018-05-26T10:19:28.812Z,8.90
2018-05-26T10:21:31.244Z,8.73
2018-05-26T10:23:34.442Z,7.80
2018-05-26T10:25:37.632Z,7.70
2018-05-26T10:27:40.985Z,8.30
2018-05-26T10:29:43.521Z,10.20
2018-05-26T10:31:45.949Z,4.80
2018-05-26T10:33:49.135Z,5.30
2018-05-26T10:35:52.333Z,5.60
2018-05-26T10:37:55.523Z,6.23
2018-05-26T10:39:58.746Z,16.63
2018-05-26T10:42:01.194Z,4.37
2018-05-26T10:44:03.607Z,9.10
2018-05-26T10:46:18.026Z,7.77
2018-05-26T10:48:20.464Z,5.13
2018-05-26T10:50:23.697Z,8.03
2018-05-26T10:52:26.132Z,3.77
2018-05-26T10:54:28.557Z,3.50
2018-05-26T10:56:31.097Z,4.50
2018-05-26T10:58:33.567Z,8.30
2018-05-26T11:00:35.996Z,7.63
2018-05-26T11:02:39.210Z,5.93
2018-05-26T11:04:41.656Z,3.00
2018-05-26T11:06:47.567Z,3.87
2018-05-26T11:08:50.172Z,6.17
2018-05-26T11:10:53.368Z,3.07
2018-05-26T11:12:56.577Z,6.60
2018-05-26T11:14:59.005Z,9.50
2018-05-26T11:17:02.213Z,7.00
2018-05-26T11:19:04.811Z,7.67
2018-05-26T11:21:07.172Z,3.87
2018-05-26T11:23:09.657Z,4.13
2018-05-26T11:25:12.124Z,25.37
2018-05-26T11:27:15.198Z,3.17
2018-05-26T11:29:17.624Z,10.50
2018-05-26T11:31:20.052Z,7.30
2018-05-26T11:33:22.488Z,10.70
2018-05-26T11:35:25.708Z,6.43
2018-05-26T11:37:28.158Z,4.13
2018-05-26T11:39:30.648Z,6.73
2018-05-26T11:41:33.091Z,4.27
2018-05-26T11:43:36.290Z,9.80
2018-05-26T11:45:39.497Z,9.43
2018-05-26T11:47:41.969Z,4.47
2018-05-26T11:49:44.400Z,4.17
2018-05-26T11:51:47.903Z,4.10
2018-05-26T11:53:50.340Z,4.30
2018-05-26T11:55:52.781Z,10.43
2018-05-26T11:57:55.238Z,6.80
2018-05-26T11:59:57.711Z,5.47
2018-05-26T12:02:00.243Z,14.37
2018-05-26T12:04:02.613Z,3.67
2018-05-26T12:06:05.813Z,8.33
2018-05-26T12:08:08.306Z,6.77
2018-05-26T12:10:10.772Z,10.43
2018-05-26T12:12:13.204Z,13.93
2018-05-26T12:14:16.397Z,10.80
2018-05-26T12:16:19.603Z,7.03
2018-05-26T12:18:22.041Z,3.40
2018-05-26T12:20:25.276Z,8.33
2018-05-26T12:22:27.749Z,3.90
2018-05-26T12:24:30.222Z,6.70
2018-05-26T12:26:32.692Z,16.43
2018-05-26T12:28:35.166Z,5.27
2018-05-26T12:30:37.584Z,4.73
2018-05-26T12:32:40.780Z,5.50
2018-05-26T12:34:43.968Z,4.30
2018-05-26T12:36:47.169Z,7.30
2018-05-26T12:38:49.654Z,5.20
2018-05-26T12:40:52.079Z,8.93
2018-05-26T12:42:55.284Z,9.63
2018-05-26T12:44:59.173Z,5.00
2018-05-26T12:47:02.405Z,4.93
2018-05-26T12:49:04.832Z,10.60
2018-05-26T12:51:08.061Z,17.97
2018-05-26T12:53:10.538Z,6.23
2018-05-26T12:55:12.956Z,5.83
2018-05-26T12:57:16.188Z,6.40
2018-05-26T12:59:18.641Z,14.33
2018-05-26T13:01:21.092Z,6.53
2018-05-26T13:03:24.848Z,4.37
2018-05-26T13:05:27.268Z,8.77
2018-05-26T13:07:29.723Z,9.33
2018-05-26T13:09:32.913Z,5.70
2018-05-26T13:11:36.153Z,3.67
2018-05-26T13:13:38.633Z,10.90
2018-05-26T13:15:41.061Z,11.63
2018-05-26T13:17:43.548Z,12.33
2018-05-26T13:19:45.986Z,13.10
2018-05-26T13:21:49.180Z,9.17
2018-05-26T13:23:52.396Z,4.50
2018-05-26T13:25:54.851Z,9.87
2018-05-26T13:27:57.332Z,5.03
2018-05-26T13:29:59.806Z,6.97
2018-05-26T13:32:02.281Z,6.60
2018-05-26T13:34:04.709Z,5.00
2018-05-26T13:36:07.937Z,3.50
2018-05-26T13:38:10.380Z,8.50
2018-05-26T13:40:12.877Z,3.17
2018-05-26T13:42:15.344Z,2.70
2018-05-26T13:44:17.783Z,6.77
2018-05-26T13:46:21.008Z,4.37
2018-05-26T13:48:23.484Z,4.90
2018-05-26T13:50:25.980Z,6.30
2018-05-26T13:52:29.130Z,10.37
2018-05-26T13:54:31.784Z,6.70
2018-05-26T13:56:35.078Z,5.17
2018-05-26T13:58:37.468Z,6.67
2018-05-26T14:00:39.896Z,3.00
2018-05-26T14:02:44.673Z,5.13
2018-05-26T14:04:47.097Z,5.30
2018-05-26T14:06:50.412Z,3.13
2018-05-26T14:08:55.075Z,6.80
2018-05-26T14:10:57.584Z,2.37
2018-05-26T14:12:59.972Z,8.60
2018-05-26T14:15:02.397Z,10.13
2018-05-26T14:17:04.916Z,7.90
2018-05-26T14:19:07.344Z,4.43
2018-05-26T14:21:10.548Z,5.10
2018-05-26T14:23:12.997Z,6.20
2018-05-26T14:25:15.512Z,6.00
2018-05-26T14:27:17.986Z,3.60
2018-05-26T14:29:20.412Z,2.57
2018-05-26T14:31:23.644Z,6.30
2018-05-26T14:33:26.116Z,6.57
2018-05-26T14:35:28.655Z,4.67
2018-05-26T14:37:31.840Z,2.87
2018-05-26T14:39:35.042Z,17.77
2018-05-26T14:41:37.525Z,2.57
2018-05-26T14:43:39.963Z,3.80
2018-05-26T14:45:43.152Z,3.47
2018-05-26T14:47:46.373Z,8.50
2018-05-26T14:49:48.917Z,3.67
2018-05-26T14:51:51.271Z,6.73
2018-05-26T14:53:54.477Z,5.37
2018-05-26T14:55:56.928Z,2.73
2018-05-26T14:58:00.129Z,4.93
2018-05-26T15:00:03.329Z,5.07
2018-05-26T15:02:05.763Z,5.40
2018-05-26T15:04:08.282Z,3.50
2018-05-26T15:06:10.720Z,4.60
2018-05-26T15:08:13.924Z,7.13
2018-05-26T15:10:16.418Z,6.30
2018-05-26T15:12:18.844Z,2.70
2018-05-26T15:14:22.041Z,9.00
2018-05-26T15:16:24.462Z,4.07
2018-05-26T15:18:26.916Z,5.30
2018-05-26T15:20:29.351Z,2.47
2018-05-26T15:22:31.770Z,2.33
2018-05-26T15:24:34.311Z,5.10
2018-05-26T15:26:36.884Z,2.40
2018-05-26T15:28:39.328Z,4.50
2018-05-26T15:30:42.593Z,5.17
2018-05-26T15:32:45.117Z,9.43
2018-05-26T15:34:47.556Z,6.80
2018-05-26T15:36:50.754Z,4.67
2018-05-26T15:38:53.256Z,7.17
2018-05-26T15:40:55.712Z,3.70
2018-05-26T15:42:59.345Z,3.90
2018-05-26T15:45:01.765Z,8.57
2018-05-26T15:47:04.190Z,3.40
2018-05-26T15:49:06.640Z,5.33
2018-05-26T15:51:09.077Z,5.80
2018-05-26T15:53:11.495Z,8.07
2018-05-26T15:55:14.697Z,4.73
2018-05-26T15:57:17.228Z,5.40
2018-05-26T15:59:19.661Z,19.03
2018-05-26T16:01:22.853Z,3.63
2018-05-26T16:03:25.362Z,5.83
2018-05-26T16:05:27.789Z,9.40
2018-05-26T16:07:30.220Z,4.30
2018-05-26T16:09:33.478Z,7.33
2018-05-26T16:11:35.945Z,5.67
2018-05-26T16:13:38.419Z,9.80
2018-05-26T16:15:40.868Z,2.87
2018-05-26T16:17:43.287Z,7.10
2018-05-26T16:19:45.720Z,9.83
2018-05-26T16:21:48.151Z,8.97
2018-05-26T16:23:51.376Z,5.40
2018-05-26T16:25:53.810Z,11.70
2018-05-26T16:27:57.030Z,14.73
2018-05-26T16:29:59.486Z,6.87
2018-05-26T16:32:02.313Z,3.77
2018-05-26T16:34:04.861Z,3.50
2018-05-26T16:36:07.316Z,3.63
2018-05-26T16:38:09.799Z,5.20
2018-05-26T16:40:12.323Z,5.80
2018-05-26T16:42:15.559Z,9.93
2018-05-26T16:44:17.989Z,6.90
2018-05-26T16:46:21.213Z,6.80
2018-05-26T16:48:23.681Z,5.20
2018-05-26T16:50:26.152Z,8.53
2018-05-26T16:52:28.580Z,3.53
2018-05-26T16:54:31.811Z,4.13
2018-05-26T16:56:34.236Z,4.30
2018-05-26T16:58:37.491Z,4.33
2018-05-26T17:00:39.922Z,8.30
2018-05-26T17:02:42.348Z,4.57
2018-05-26T17:04:46.300Z,10.33
2018-05-26T17:06:48.747Z,11.80
2018-05-26T17:08:51.959Z,15.53
2018-05-26T17:10:55.132Z,3.67
2018-05-26T17:12:57.626Z,11.70
2018-05-26T17:15:00.092Z,3.43
2018-05-26T17:17:02.584Z,8.40
2018-05-26T17:19:05.015Z,4.23
2018-05-26T17:21:08.145Z,3.27
2018-05-26T17:23:10.562Z,10.37
2018-05-26T17:25:13.000Z,3.93
2018-05-26T17:27:16.245Z,7.00
2018-05-26T17:29:18.750Z,9.70
2018-05-26T17:31:21.184Z,7.70
2018-05-26T17:33:23.642Z,12.40
2018-05-26T17:35:26.080Z,8.20
2018-05-26T17:37:28.565Z,7.33
2018-05-26T17:39:30.976Z,11.13
2018-05-26T17:41:33.927Z,6.33
2018-05-26T17:43:37.112Z,4.70
2018-05-26T17:45:39.724Z,3.37
2018-05-26T17:47:42.189Z,4.60
2018-05-26T17:49:44.652Z,6.53
2018-05-26T17:51:48.172Z,3.37
2018-05-26T17:53:50.600Z,3.43
2018-05-26T17:55:53.036Z,8.30
2018-05-26T17:57:56.276Z,3.70
2018-05-26T17:59:58.697Z,3.03
2018-05-26T18:02:01.897Z,5.37
2018-05-26T18:04:05.117Z,7.57
2018-05-26T18:06:07.544Z,11.80
2018-05-26T18:08:11.617Z,2.73
2018-05-26T18:10:14.060Z,14.40
2018-05-26T18:12:16.492Z,12.97
2018-05-26T18:14:19.707Z,3.80
2018-05-26T18:16:22.129Z,11.93
2018-05-26T18:18:24.561Z,12.23
2018-05-26T18:20:27.088Z,3.40
2018-05-26T18:22:29.461Z,20.00
2018-05-26T18:24:32.655Z,7.60
2018-05-26T18:26:35.085Z,3.43
2018-05-26T18:28:37.709Z,3.80
2018-05-26T18:30:41.918Z,6.10
2018-05-26T18:32:45.152Z,6.77
2018-05-26T18:34:47.556Z,4.70
2018-05-26T18:36:50.756Z,2.70
2018-05-26T18:38:53.949Z,13.93
2018-05-26T18:40:56.443Z,7.93
2018-05-26T18:42:58.869Z,8.93
2018-05-26T18:45:02.052Z,6.60
2018-05-26T18:47:05.279Z,6.40
2018-05-26T18:49:07.764Z,7.00
2018-05-26T18:51:10.173Z,6.00
2018-05-26T18:53:12.604Z,4.07
2018-05-26T18:55:15.065Z,4.30
2018-05-26T18:57:17.512Z,9.93
2018-05-26T18:59:20.735Z,16.73
2018-05-26T19:01:23.615Z,4.23
2018-05-26T19:03:26.049Z,10.80
2018-05-26T19:05:28.518Z,7.90
2018-05-26T19:07:31.725Z,8.07
2018-05-26T19:09:34.192Z,4.90
2018-05-26T19:11:36.613Z,14.07
2018-05-26T19:13:39.826Z,17.67
2018-05-26T19:15:43.042Z,11.60
2018-05-26T19:17:45.470Z,4.53
2018-05-26T19:19:48.700Z,10.87
2018-05-26T19:21:51.201Z,5.77
2018-05-26T19:23:53.630Z,9.33
2018-05-26T19:25:56.113Z,7.03
2018-05-26T19:27:58.536Z,13.30
2018-05-26T19:30:01.774Z,7.07
2018-05-26T19:32:04.205Z,9.63
2018-05-26T19:34:07.446Z,11.53
2018-05-26T19:36:09.920Z,13.03
2018-05-26T19:38:12.349Z,6.97
2018-05-26T19:40:14.801Z,10.57
2018-05-26T19:42:18.024Z,13.60
2018-05-26T19:44:20.495Z,13.77
2018-05-26T19:46:22.973Z,8.33
2018-05-26T19:48:25.413Z,10.53
2018-05-26T19:50:27.937Z,25.60
2018-05-26T19:52:30.461Z,8.70
2018-05-26T19:54:32.912Z,23.13
2018-05-26T19:56:35.410Z,16.43
2018-05-26T19:58:37.841Z,17.23
2018-05-26T20:00:41.093Z,12.43
2018-05-26T20:02:43.521Z,32.33
2018-05-26T20:04:46.500Z,11.00
2018-05-26T20:06:48.958Z,5.03
2018-05-26T20:08:52.150Z,9.83
2018-05-26T20:10:54.625Z,25.13
2018-05-26T20:12:57.831Z,15.23
2018-05-26T20:15:00.245Z,10.63
2018-05-26T20:17:02.705Z,9.70
2018-05-26T20:19:05.178Z,21.07
2018-05-26T20:21:07.636Z,10.13
2018-05-26T20:23:10.089Z,5.87
2018-05-26T20:25:12.543Z,6.50
2018-05-26T20:27:16.384Z,5.50
2018-05-26T20:29:18.877Z,16.17
2018-05-26T20:31:21.351Z,20.43
2018-05-26T20:33:23.780Z,6.73
2018-05-26T20:35:26.244Z,12.67
2018-05-26T20:37:28.682Z,10.27
2018-05-26T20:39:31.213Z,6.50
2018-05-26T20:41:34.466Z,6.03
2018-05-26T20:43:36.924Z,13.00
2018-05-26T20:45:39.411Z,6.07
2018-05-26T20:47:41.880Z,6.23
2018-05-26T20:49:44.304Z,7.63
2018-05-26T20:51:47.566Z,11.50
2018-05-26T20:53:50.164Z,12.33
2018-05-26T20:55:52.614Z,22.17
2018-05-26T20:57:55.049Z,10.07
2018-05-26T20:59:57.561Z,16.33
2018-05-26T21:01:59.966Z,5.83
2018-05-26T21:04:02.456Z,14.50
2018-05-26T21:06:04.906Z,13.00
2018-05-26T21:08:07.329Z,6.50
2018-05-26T21:10:09.768Z,10.10
2018-05-26T21:12:12.251Z,11.50
2018-05-26T21:14:14.677Z,15.03
2018-05-26T21:16:17.108Z,29.63
2018-05-26T21:18:19.590Z,11.43
2018-05-26T21:20:22.098Z,11.77
2018-05-26T21:22:25.287Z,5.07
2018-05-26T21:24:27.773Z,6.30
2018-05-26T21:26:31.576Z,7.17
2018-05-26T21:28:34.034Z,6.00
2018-05-26T21:30:36.512Z,10.83
2018-05-26T21:32:39.001Z,12.73
2018-05-26T21:34:41.444Z,10.60
2018-05-26T21:36:43.929Z,11.20
2018-05-26T21:38:46.432Z,11.63
2018-05-26T21:40:48.873Z,16.97
2018-05-26T21:42:51.304Z,6.53
2018-05-26T21:44:54.528Z,7.93
2018-05-26T21:46:56.960Z,14.93
2018-05-26T21:49:00.160Z,16.50
2018-05-26T21:51:02.644Z,20.87
2018-05-26T21:53:05.081Z,7.17
2018-05-26T21:55:08.326Z,7.43
2018-05-26T21:57:10.754Z,14.13
2018-05-26T21:59:13.976Z,18.70
2018-05-26T22:01:16.409Z,7.73
2018-05-26T22:03:18.849Z,10.80
2018-05-26T22:05:21.373Z,11.90
2018-05-26T22:07:23.860Z,7.10
2018-05-26T22:09:26.320Z,9.40
2018-05-26T22:11:28.753Z,7.77
2018-05-26T22:13:31.964Z,7.53
2018-05-26T22:15:34.398Z,6.20
2018-05-26T22:17:37.609Z,11.90
2018-05-26T22:19:40.031Z,13.17
2018-05-26T22:21:42.573Z,8.07
2018-05-26T22:23:45.022Z,8.07
2018-05-26T22:25:47.445Z,7.03
2018-05-26T22:27:50.647Z,13.07
2018-05-26T22:29:53.864Z,8.93
2018-05-26T22:31:56.339Z,5.50
2018-05-26T22:33:58.762Z,6.00
2018-05-26T22:36:01.209Z,5.90
2018-05-26T22:38:03.684Z,18.50
2018-05-26T22:40:06.129Z,7.60
2018-05-26T22:42:08.598Z,5.43
2018-05-26T22:44:11.038Z,13.93
2018-05-26T22:46:14.260Z,9.23
2018-05-26T22:48:16.815Z,7.90
2018-05-26T22:50:19.997Z,5.60
2018-05-26T22:52:22.571Z,5.13
2018-05-26T22:54:25.860Z,6.33
2018-05-26T22:56:29.149Z,9.27
2018-05-26T22:58:32.379Z,6.90
2018-05-26T23:00:34.804Z,4.63
2018-05-26T23:02:37.378Z,6.23
2018-05-26T23:04:40.668Z,5.33
2018-05-26T23:06:43.969Z,7.00
2018-05-26T23:08:46.434Z,7.43
2018-05-26T23:10:48.875Z,20.27
2018-05-26T23:12:51.349Z,6.50
2018-05-26T23:14:54.574Z,7.60
2018-05-26T23:16:57.027Z,13.83
2018-05-26T23:18:59.469Z,6.77
2018-05-26T23:21:02.683Z,4.03
2018-05-26T23:23:05.878Z,7.93
2018-05-26T23:25:08.338Z,10.33
2018-05-26T23:27:11.540Z,5.00
2018-05-26T23:29:14.013Z,7.53
2018-05-26T23:31:16.481Z,5.30
2018-05-26T23:33:18.953Z,6.53
2018-05-26T23:35:21.381Z,11.53
2018-05-26T23:37:24.610Z,6.63
2018-05-26T23:39:27.048Z,13.60
2018-05-26T23:41:30.353Z,7.07
2018-05-26T23:43:33.573Z,4.77
2018-05-26T23:45:36.028Z,6.20
2018-05-26T23:47:38.586Z,6.43
2018-05-26T23:49:41.052Z,5.43
2018-05-26T23:51:44.233Z,5.10
2018-05-26T23:53:46.697Z,4.83
2018-05-26T23:55:49.906Z,9.93
2018-05-26T23:57:52.390Z,11.07
2018-05-26T23:59:54.866Z,10.90
